Time;durP1;ratioP1;P1;durP2;ratioP2;P2;SDS_P1;SDS_P2;PMS_P1;PMS_P2;Temp;Humidity;BMP_temperature;BMP_pressure;BME280_temperature;BME280_humidity;BME280_pressure;Samples;Min_cycle;Max_cycle;Signal;HPM_P1;HPM_P2
2022/07/24 00:00:45;;;;;;;8.17;6.40;;;20.20;99.90;;;;;;4990880;28;20450;-70
2022/07/24 00:03:12;;;;;;;6.80;6.20;;;20.20;99.90;;;;;;4990582;28;20482;-70
2022/07/24 00:05:39;;;;;;;6.40;5.80;;;20.10;99.90;;;;;;4980600;28;20512;-70
2022/07/24 00:08:06;;;;;;;6.00;5.40;;;20.10;99.90;;;;;;4991449;28;20537;-69
2022/07/24 00:10:34;;;;;;;6.17;5.10;;;20.00;99.90;;;;;;4977787;28;20499;-70
2022/07/24 00:13:00;;;;;;;6.17;5.20;;;20.00;99.90;;;;;;4987057;28;20451;-69
2022/07/24 00:15:27;;;;;;;8.87;5.80;;;20.00;99.90;;;;;;4991013;28;20459;-69
2022/07/24 00:17:54;;;;;;;6.67;5.57;;;19.90;99.90;;;;;;4979197;28;20484;-70
2022/07/24 00:20:21;;;;;;;6.17;5.47;;;19.90;99.90;;;;;;4979358;28;20509;-69
2022/07/24 00:22:48;;;;;;;8.00;5.13;;;19.80;99.90;;;;;;4990956;28;20548;-70
2022/07/24 00:25:14;;;;;;;8.03;5.70;;;19.80;99.90;;;;;;4990936;28;20455;-70
2022/07/24 00:27:42;;;;;;;8.53;5.33;;;19.70;99.90;;;;;;4991079;28;20475;-69
2022/07/24 00:30:10;;;;;;;6.23;5.73;;;19.70;99.90;;;;;;4990889;28;20463;-70
2022/07/24 00:32:36;;;;;;;7.23;6.10;;;19.60;99.90;;;;;;4981023;28;20482;-69
2022/07/24 00:35:04;;;;;;;7.87;5.33;;;19.50;99.90;;;;;;4972749;28;20452;-70
2022/07/24 00:37:30;;;;;;;6.70;6.07;;;19.50;99.90;;;;;;4978318;28;20534;-70
2022/07/24 00:39:57;;;;;;;8.70;5.97;;;19.50;99.90;;;;;;4990998;28;20509;-69
2022/07/24 00:42:24;;;;;;;6.40;4.90;;;19.40;99.90;;;;;;4990802;28;20479;-70
2022/07/24 00:44:52;;;;;;;7.80;5.83;;;19.40;99.90;;;;;;4987612;28;20459;-70
2022/07/24 00:47:18;;;;;;;7.30;5.50;;;19.30;99.90;;;;;;4990054;28;20482;-70
2022/07/24 00:49:45;;;;;;;6.43;5.83;;;19.30;99.90;;;;;;4990127;28;20546;-70
2022/07/24 00:52:12;;;;;;;6.57;5.27;;;19.30;99.90;;;;;;4989609;28;20517;-69
2022/07/24 00:54:39;;;;;;;6.60;6.00;;;19.20;99.90;;;;;;4987475;28;20456;-70
2022/07/24 00:57:06;;;;;;;7.87;6.20;;;19.20;99.90;;;;;;4972289;28;20531;-69
2022/07/24 00:59:32;;;;;;;6.77;5.90;;;19.10;99.90;;;;;;4976068;28;20460;-70
2022/07/24 01:02:01;;;;;;;9.27;6.00;;;19.10;99.90;;;;;;4972402;28;20861;-69
2022/07/24 01:04:27;;;;;;;7.63;6.20;;;19.00;99.90;;;;;;4972445;28;20456;-69
2022/07/24 01:06:54;;;;;;;7.83;6.13;;;18.90;99.90;;;;;;4989436;28;20445;-69
2022/07/24 01:09:21;;;;;;;6.80;6.07;;;18.90;99.90;;;;;;4975329;28;21040;-69
2022/07/24 01:11:48;;;;;;;9.43;6.30;;;18.80;99.90;;;;;;4986150;28;20514;-69
2022/07/24 01:14:16;;;;;;;7.73;6.87;;;18.80;99.90;;;;;;4990814;28;20455;-69
2022/07/24 01:16:43;;;;;;;6.90;6.30;;;18.80;99.90;;;;;;4969070;28;20442;-70
2022/07/24 01:19:10;;;;;;;8.80;6.90;;;18.70;99.90;;;;;;4972689;28;20460;-69
2022/07/24 01:21:39;;;;;;;7.60;6.40;;;18.70;99.90;;;;;;4972428;28;20498;-69
2022/07/24 01:24:06;;;;;;;8.20;6.83;;;18.70;99.90;;;;;;4972268;28;20830;-69
2022/07/24 01:26:32;;;;;;;12.40;6.97;;;18.60;99.90;;;;;;4981667;28;20479;-69
2022/07/24 01:28:59;;;;;;;8.70;6.23;;;18.60;99.90;;;;;;4990454;28;20934;-69
2022/07/24 01:31:26;;;;;;;9.97;7.20;;;18.50;99.90;;;;;;4977874;28;20511;-69
2022/07/24 01:33:52;;;;;;;8.40;6.70;;;18.50;99.90;;;;;;4972451;28;20444;-69
2022/07/24 01:36:19;;;;;;;10.00;6.43;;;18.50;99.90;;;;;;4985339;28;20479;-70
2022/07/24 01:38:47;;;;;;;10.87;6.90;;;18.50;99.90;;;;;;4985388;28;20437;-69
2022/07/24 01:41:13;;;;;;;9.33;7.23;;;18.50;99.90;;;;;;4990687;28;20492;-69
2022/07/24 01:43:40;;;;;;;6.70;6.20;;;18.40;99.90;;;;;;4972065;28;20899;-70
2022/07/24 01:46:07;;;;;;;8.17;7.17;;;18.40;99.90;;;;;;4981481;28;20466;-70
2022/07/24 01:48:34;;;;;;;7.53;6.73;;;18.40;99.90;;;;;;4993405;28;20455;-69
2022/07/24 01:51:00;;;;;;;7.47;6.40;;;18.40;99.90;;;;;;4989097;28;20452;-69
2022/07/24 01:53:27;;;;;;;10.33;7.03;;;18.40;99.90;;;;;;4992130;28;20451;-70
2022/07/24 01:55:55;;;;;;;10.13;6.77;;;18.30;99.90;;;;;;4993119;28;20455;-70
2022/07/24 01:58:22;;;;;;;9.33;6.70;;;18.30;99.90;;;;;;4992832;28;20984;-70
2022/07/24 02:00:49;;;;;;;7.10;6.40;;;18.30;99.90;;;;;;4992172;28;20476;-70
2022/07/24 02:03:16;;;;;;;8.13;7.13;;;18.30;99.90;;;;;;4992298;28;20457;-69
2022/07/24 02:05:42;;;;;;;8.73;6.37;;;18.20;99.90;;;;;;4988767;28;20438;-69
2022/07/24 02:08:09;;;;;;;9.00;6.37;;;18.20;99.90;;;;;;4982745;28;20530;-69
2022/07/24 02:10:36;;;;;;;9.47;7.10;;;18.20;99.90;;;;;;4975529;28;20510;-69
2022/07/24 02:13:04;;;;;;;6.80;6.10;;;18.20;99.90;;;;;;4987968;28;20455;-69
2022/07/24 02:15:31;;;;;;;8.40;6.30;;;18.20;99.90;;;;;;4975131;28;20452;-69
2022/07/24 02:18:00;;;;;;;7.60;6.43;;;18.20;99.90;;;;;;4987566;28;20466;-70
2022/07/24 02:20:28;;;;;;;9.93;6.83;;;18.20;99.90;;;;;;4975373;28;20503;-70
2022/07/24 02:22:55;;;;;;;8.27;6.63;;;18.10;99.90;;;;;;4979578;28;20480;-69
2022/07/24 02:25:22;;;;;;;8.53;6.07;;;18.10;99.90;;;;;;4992172;28;21278;-70
2022/07/24 02:27:49;;;;;;;6.67;5.97;;;18.10;99.90;;;;;;4977854;28;20446;-69
2022/07/24 02:30:20;;;;;;;7.97;6.53;;;18.10;99.90;;;;;;4975912;28;20487;-69
2022/07/24 02:32:47;;;;;;;8.10;6.80;;;18.10;99.90;;;;;;4975204;28;20448;-70
2022/07/24 02:35:14;;;;;;;8.40;6.00;;;18.10;99.90;;;;;;4989753;28;20463;-70
2022/07/24 02:37:43;;;;;;;6.77;6.10;;;18.10;99.90;;;;;;4971145;28;20526;-70
2022/07/24 02:40:11;;;;;;;7.17;6.33;;;18.00;99.90;;;;;;4992400;28;20453;-70
2022/07/24 02:42:38;;;;;;;9.73;6.40;;;18.00;99.90;;;;;;4991272;28;21108;-70
2022/07/24 02:45:07;;;;;;;7.90;6.50;;;18.00;99.90;;;;;;4992124;28;20522;-69
2022/07/24 02:47:35;;;;;;;7.03;6.33;;;18.00;99.90;;;;;;4990300;28;20475;-69
2022/07/24 02:50:02;;;;;;;7.90;6.70;;;17.90;99.90;;;;;;4992334;28;20455;-69
2022/07/24 02:52:29;;;;;;;11.57;6.73;;;17.90;99.90;;;;;;4975839;28;20463;-69
2022/07/24 02:54:56;;;;;;;6.93;6.23;;;17.80;99.90;;;;;;4975723;28;20477;-70
2022/07/24 02:57:22;;;;;;;7.30;6.60;;;17.80;99.90;;;;;;4975193;28;20530;-70
2022/07/24 02:59:51;;;;;;;10.90;6.33;;;17.70;99.90;;;;;;4974734;28;20460;-70
2022/07/24 03:02:18;;;;;;;7.90;7.10;;;17.70;99.90;;;;;;4974441;28;20495;-70
2022/07/24 03:04:46;;;;;;;13.13;6.40;;;17.70;99.90;;;;;;4984899;28;21078;-70
2022/07/24 03:07:13;;;;;;;7.73;6.40;;;17.60;99.90;;;;;;4970529;28;20523;-70
2022/07/24 03:09:39;;;;;;;6.90;6.20;;;17.60;99.90;;;;;;4990462;28;20515;-70
2022/07/24 03:12:07;;;;;;;7.00;6.30;;;17.60;99.90;;;;;;4985295;28;20452;-70
2022/07/24 03:14:33;;;;;;;7.27;6.03;;;17.50;99.90;;;;;;4986872;28;21196;-69
2022/07/24 03:17:00;;;;;;;7.80;6.63;;;17.50;99.90;;;;;;4978623;28;20460;-70
2022/07/24 03:19:27;;;;;;;8.13;6.37;;;17.40;99.90;;;;;;4991619;28;20926;-70
2022/07/24 03:21:55;;;;;;;7.00;6.30;;;17.40;99.90;;;;;;4980449;28;20419;-70
2022/07/24 03:24:21;;;;;;;7.10;6.47;;;17.40;99.90;;;;;;4985556;28;20516;-70
2022/07/24 03:26:48;;;;;;;15.63;7.00;;;17.40;99.90;;;;;;4991058;28;20500;-70
2022/07/24 03:29:15;;;;;;;6.77;5.70;;;17.30;99.90;;;;;;4990675;28;20459;-70
2022/07/24 03:31:42;;;;;;;8.97;6.50;;;17.30;99.90;;;;;;4972374;28;20480;-70
2022/07/24 03:34:09;;;;;;;7.97;7.17;;;17.30;99.90;;;;;;4991315;28;20447;-70
2022/07/24 03:36:36;;;;;;;12.57;7.07;;;17.30;99.90;;;;;;4990537;28;20446;-70
2022/07/24 03:39:04;;;;;;;9.03;7.50;;;17.30;99.90;;;;;;4989063;28;20452;-69
2022/07/24 03:41:31;;;;;;;8.73;7.60;;;17.30;99.90;;;;;;4976778;28;20497;-70
2022/07/24 03:43:58;;;;;;;12.87;7.40;;;17.20;99.90;;;;;;4972129;28;20513;-70
2022/07/24 03:46:25;;;;;;;7.60;6.80;;;17.20;99.90;;;;;;4976736;28;20480;-69
2022/07/24 03:48:51;;;;;;;7.60;6.57;;;17.20;99.90;;;;;;4973536;28;20423;-70
2022/07/24 03:51:18;;;;;;;10.80;6.77;;;17.20;99.90;;;;;;4978455;28;20463;-70
2022/07/24 03:53:44;;;;;;;6.93;6.23;;;17.20;99.90;;;;;;4991021;28;20452;-70
2022/07/24 03:56:12;;;;;;;7.77;6.20;;;17.20;99.90;;;;;;4969589;28;20472;-70
2022/07/24 03:58:39;;;;;;;7.33;6.63;;;17.20;99.90;;;;;;4990116;28;20554;-69
2022/07/24 04:01:06;;;;;;;7.83;7.03;;;17.20;99.90;;;;;;4990960;28;20459;-70
2022/07/24 04:03:32;;;;;;;9.43;7.93;;;17.20;99.90;;;;;;4990461;28;20465;-69
2022/07/24 04:06:01;;;;;;;9.23;6.90;;;17.10;99.90;;;;;;4978103;28;20482;-70
2022/07/24 04:08:27;;;;;;;8.03;7.23;;;17.20;99.90;;;;;;4973036;28;20939;-70
2022/07/24 04:10:56;;;;;;;7.17;6.57;;;17.20;99.90;;;;;;4987667;28;20451;-69
2022/07/24 04:13:25;;;;;;;7.67;6.87;;;17.20;99.90;;;;;;4987925;28;20422;-70
2022/07/24 04:15:51;;;;;;;9.27;7.10;;;17.20;99.90;;;;;;4989919;28;20491;-69
2022/07/24 04:18:18;;;;;;;7.53;6.67;;;17.20;99.90;;;;;;4988679;28;20454;-70
2022/07/24 04:20:45;;;;;;;9.97;7.70;;;17.10;99.90;;;;;;4990451;28;20421;-69
2022/07/24 04:23:12;;;;;;;7.73;6.90;;;17.10;99.90;;;;;;4990778;28;20488;-69
2022/07/24 04:25:38;;;;;;;7.87;7.07;;;17.00;99.90;;;;;;4989752;28;20477;-69
2022/07/24 04:28:05;;;;;;;9.43;7.60;;;17.00;99.90;;;;;;4990195;28;21002;-69
2022/07/24 04:30:34;;;;;;;7.03;6.43;;;17.00;99.90;;;;;;4990305;28;20426;-70
2022/07/24 04:33:01;;;;;;;10.40;7.00;;;17.00;99.90;;;;;;4979279;28;20464;-70
2022/07/24 04:35:28;;;;;;;11.80;7.23;;;17.00;99.90;;;;;;4990153;28;20798;-70
2022/07/24 04:37:55;;;;;;;8.40;7.60;;;17.00;99.90;;;;;;4980740;28;20450;-78
2022/07/24 04:40:21;;;;;;;7.90;6.70;;;17.20;99.90;;;;;;4975190;28;20456;-80
2022/07/24 04:42:48;;;;;;;8.83;7.07;;;17.20;99.90;;;;;;4989447;28;20443;-80
2022/07/24 04:45:14;;;;;;;9.23;7.70;;;17.30;99.90;;;;;;4987883;28;20466;-81
2022/07/24 04:47:43;;;;;;;7.30;6.57;;;17.40;99.90;;;;;;4971113;28;20446;-81
2022/07/24 04:50:10;;;;;;;7.90;6.93;;;17.50;99.90;;;;;;4972954;28;20935;-81
2022/07/24 04:52:36;;;;;;;6.83;6.13;;;17.60;99.90;;;;;;4977550;28;20815;-80
2022/07/24 04:55:04;;;;;;;7.03;6.30;;;17.70;99.90;;;;;;4987180;28;20446;-79
2022/07/24 04:57:31;;;;;;;12.03;6.70;;;17.80;99.90;;;;;;4984344;28;20462;-81
2022/07/24 04:59:57;;;;;;;10.33;6.60;;;17.90;99.90;;;;;;4979497;28;20470;-81
2022/07/24 05:02:24;;;;;;;6.40;5.80;;;18.10;99.90;;;;;;4991444;28;20509;-81
2022/07/24 05:04:52;;;;;;;10.63;6.33;;;18.20;99.90;;;;;;4994232;28;20483;-81
2022/07/24 05:07:18;;;;;;;15.17;6.23;;;18.30;99.90;;;;;;4993671;28;20446;-81
2022/07/24 05:09:45;;;;;;;6.70;6.10;;;18.30;99.90;;;;;;4976738;28;20464;-81
2022/07/24 05:12:12;;;;;;;6.70;5.93;;;18.60;99.90;;;;;;4988084;28;20458;-81
2022/07/24 05:14:38;;;;;;;6.57;5.97;;;18.40;99.90;;;;;;4993772;28;20510;-81
2022/07/24 05:17:05;;;;;;;9.53;6.17;;;18.40;99.90;;;;;;4981902;28;20509;-82
2022/07/24 05:19:32;;;;;;;8.63;5.80;;;18.40;99.90;;;;;;4980539;28;20422;-81
2022/07/24 05:22:00;;;;;;;6.73;6.13;;;18.50;99.90;;;;;;4996373;28;20429;-81
2022/07/24 05:24:26;;;;;;;6.00;5.50;;;18.60;99.90;;;;;;4985664;28;20534;-81
2022/07/24 05:26:54;;;;;;;6.30;5.70;;;18.70;99.90;;;;;;4981426;28;20472;-81
2022/07/24 05:29:21;;;;;;;6.90;6.30;;;18.70;99.90;;;;;;4983250;28;20818;-81
2022/07/24 05:31:49;;;;;;;7.20;6.50;;;18.80;99.90;;;;;;4994681;28;20551;-81
2022/07/24 05:34:15;;;;;;;9.30;6.37;;;18.90;99.90;;;;;;4978690;28;20507;-79
2022/07/24 05:36:42;;;;;;;8.20;5.60;;;19.10;99.90;;;;;;4986928;28;20530;-79
2022/07/24 05:39:10;;;;;;;6.50;5.90;;;19.30;99.90;;;;;;4976876;28;20507;-79
2022/07/24 05:41:37;;;;;;;6.57;5.97;;;19.40;99.90;;;;;;4980532;28;20455;-79
2022/07/24 05:44:03;;;;;;;7.30;6.13;;;19.60;99.90;;;;;;4989296;28;20549;-77
2022/07/24 05:46:30;;;;;;;6.80;6.20;;;19.60;99.90;;;;;;4992479;28;20529;-78
2022/07/24 05:48:57;;;;;;;7.60;6.17;;;19.70;99.90;;;;;;4992944;28;20509;-77
2022/07/24 05:51:25;;;;;;;9.50;5.80;;;19.70;99.90;;;;;;4988531;28;20475;-76
2022/07/24 05:53:52;;;;;;;7.83;6.07;;;19.80;99.90;;;;;;4978672;28;20431;-76
2022/07/24 05:56:20;;;;;;;8.03;6.00;;;19.80;99.90;;;;;;4981970;28;20476;-76
2022/07/24 05:58:46;;;;;;;9.13;6.60;;;19.90;99.90;;;;;;4971766;28;20452;-79
2022/07/24 06:01:13;;;;;;;7.87;6.13;;;20.00;99.90;;;;;;4977668;28;20493;-80
2022/07/24 06:03:40;;;;;;;6.87;6.03;;;20.00;99.90;;;;;;4986295;28;20483;-80
2022/07/24 06:06:06;;;;;;;7.20;6.50;;;20.30;99.90;;;;;;4996873;28;20447;-81
2022/07/24 06:08:33;;;;;;;7.03;6.17;;;20.40;99.90;;;;;;4985043;28;20463;-80
2022/07/24 06:11:00;;;;;;;5.77;5.27;;;20.60;99.90;;;;;;4977262;28;20464;-80
2022/07/24 06:13:28;;;;;;;8.23;5.60;;;20.70;99.90;;;;;;4979158;28;20456;-80
2022/07/24 06:15:55;;;;;;;8.37;5.40;;;20.90;99.90;;;;;;4972106;28;20456;-79
2022/07/24 06:18:21;;;;;;;8.40;5.63;;;21.00;99.90;;;;;;4984380;28;20452;-79
2022/07/24 06:20:48;;;;;;;6.17;5.57;;;21.10;99.90;;;;;;4987923;28;20456;-79
2022/07/24 06:23:15;;;;;;;7.80;5.70;;;21.30;99.90;;;;;;4986845;28;20460;-80
2022/07/24 06:25:41;;;;;;;6.40;5.57;;;21.40;99.90;;;;;;4971331;28;20491;-80
2022/07/24 06:28:08;;;;;;;6.17;5.60;;;21.60;99.90;;;;;;4982503;28;20518;-80
2022/07/24 06:30:36;;;;;;;6.73;4.73;;;21.80;99.90;;;;;;4974509;28;20514;-81
2022/07/24 06:33:03;;;;;;;7.30;5.20;;;21.90;99.90;;;;;;4987801;28;20502;-80
2022/07/24 06:35:32;;;;;;;5.93;5.33;;;22.20;99.90;;;;;;4983973;28;20518;-79
2022/07/24 06:37:59;;;;;;;6.20;5.60;;;22.30;99.90;;;;;;4975000;28;20554;-79
2022/07/24 06:40:26;;;;;;;7.03;5.63;;;22.40;99.90;;;;;;4978808;28;20459;-79
2022/07/24 06:42:52;;;;;;;7.60;5.67;;;22.60;99.90;;;;;;4990727;28;20455;-80
2022/07/24 06:45:19;;;;;;;6.40;5.47;;;22.60;99.90;;;;;;4982358;28;21275;-81
2022/07/24 06:47:48;;;;;;;5.83;5.23;;;22.80;99.90;;;;;;4992123;28;20542;-80
2022/07/24 06:50:15;;;;;;;6.00;5.40;;;23.10;99.90;;;;;;4985381;28;20515;-81
2022/07/24 06:52:42;;;;;;;6.63;5.00;;;23.20;99.90;;;;;;4977685;28;20460;-81
2022/07/24 06:55:09;;;;;;;10.23;5.10;;;23.40;99.90;;;;;;4974468;28;20463;-80
2022/07/24 06:57:36;;;;;;;6.43;5.60;;;23.50;99.90;;;;;;4984125;28;20475;-81
2022/07/24 07:00:05;;;;;;;5.30;4.80;;;23.60;99.90;;;;;;4978375;28;20535;-81
2022/07/24 07:02:32;;;;;;;5.60;4.73;;;23.70;99.90;;;;;;4989192;28;20459;-80
2022/07/24 07:05:00;;;;;;;8.27;5.23;;;23.70;99.90;;;;;;4992265;28;20529;-81
2022/07/24 07:07:27;;;;;;;6.87;5.73;;;23.80;99.90;;;;;;4983035;28;20515;-80
2022/07/24 07:09:53;;;;;;;5.70;4.93;;;23.80;99.90;;;;;;4987251;28;20468;-81
2022/07/24 07:12:20;;;;;;;7.10;5.20;;;23.90;99.90;;;;;;4980367;28;20889;-81
2022/07/24 07:14:47;;;;;;;6.00;5.37;;;24.00;99.90;;;;;;4985657;28;20955;-81
2022/07/24 07:17:15;;;;;;;5.13;4.63;;;24.20;99.90;;;;;;4982907;28;20525;-78
2022/07/24 07:19:42;;;;;;;6.30;4.60;;;24.20;99.90;;;;;;4973737;28;20507;-81
2022/07/24 07:22:10;;;;;;;6.87;5.00;;;24.20;99.90;;;;;;4986005;28;21005;-79
2022/07/24 07:24:37;;;;;;;8.73;5.70;;;24.40;99.90;;;;;;4981580;28;20476;-79
2022/07/24 07:27:04;;;;;;;8.43;4.40;;;24.40;99.90;;;;;;4989864;28;20893;-79
2022/07/24 07:29:31;;;;;;;5.03;4.40;;;24.50;99.90;;;;;;4985872;28;20464;-80
2022/07/24 07:31:57;;;;;;;5.17;4.63;;;24.60;99.90;;;;;;4991286;28;20509;-79
2022/07/24 07:34:24;;;;;;;7.93;5.10;;;24.60;99.90;;;;;;4931688;28;20495;-81
2022/07/24 07:36:51;;;;;;;6.43;4.90;;;24.70;99.90;;;;;;4984204;28;20472;-80
2022/07/24 07:39:19;;;;;;;9.40;4.40;;;24.80;99.90;;;;;;4978098;28;21009;-74
2022/07/24 07:41:45;;;;;;;4.67;4.27;;;25.00;99.90;;;;;;4990157;28;20838;-78
2022/07/24 07:44:12;;;;;;;5.70;4.60;;;25.30;99.90;;;;;;4991436;28;20905;-77
2022/07/24 07:46:39;;;;;;;5.13;4.40;;;25.60;99.90;;;;;;4977783;28;20998;-79
2022/07/24 07:49:05;;;;;;;8.43;4.90;;;25.90;99.90;;;;;;4992189;28;21195;-78
2022/07/24 07:51:32;;;;;;;5.07;4.53;;;26.00;99.90;;;;;;4984989;28;20858;-78
2022/07/24 07:54:06;;;;;;;5.63;5.10;;;25.90;99.90;;;;;;5079870;28;20549;-77
2022/07/24 07:56:33;;;;;;;5.23;4.00;;;26.10;99.90;;;;;;5068297;28;20467;-76
2022/07/24 07:59:00;;;;;;;4.00;3.57;;;26.40;99.90;;;;;;5068376;28;20446;-78
2022/07/24 08:01:26;;;;;;;6.80;4.33;;;26.50;99.90;;;;;;5067777;28;20488;-76
2022/07/24 08:03:53;;;;;;;4.63;4.03;;;26.70;99.90;;;;;;5025595;28;20495;-77
2022/07/24 08:06:20;;;;;;;4.33;3.93;;;27.00;99.90;;;;;;5067238;28;20527;-78
2022/07/24 08:08:46;;;;;;;4.80;4.30;;;27.00;99.90;;;;;;5066402;28;20509;-78
2022/07/24 08:11:15;;;;;;;4.63;4.20;;;27.20;99.90;;;;;;5067707;28;20521;-79
2022/07/24 08:13:41;;;;;;;4.10;3.70;;;27.10;99.90;;;;;;5062365;28;20492;-79
2022/07/24 08:16:08;;;;;;;6.27;4.17;;;26.80;99.90;;;;;;5046330;28;58815;-79
2022/07/24 08:18:35;;;;;;;4.30;3.90;;;26.70;99.90;;;;;;5047214;28;20514;-80
2022/07/24 08:21:02;;;;;;;4.63;3.87;;;26.90;99.90;;;;;;5047197;28;20460;-82
2022/07/24 08:23:28;;;;;;;4.30;4.00;;;26.90;99.90;;;;;;5048050;28;20452;-78
2022/07/24 08:25:55;;;;;;;4.47;4.00;;;27.00;99.90;;;;;;5046613;28;20526;-79
2022/07/24 08:28:23;;;;;;;5.07;4.07;;;27.10;99.90;;;;;;5047735;28;20457;-80
2022/07/24 08:30:50;;;;;;;4.50;4.10;;;27.50;99.90;;;;;;5047244;28;20461;-80
2022/07/24 08:33:17;;;;;;;5.60;3.60;;;27.80;99.90;;;;;;5047736;28;20476;-78
2022/07/24 08:35:43;;;;;;;4.47;4.07;;;28.00;99.90;;;;;;5047806;28;20456;-76
2022/07/24 08:38:10;;;;;;;5.90;3.87;;;28.00;99.90;;;;;;5043405;28;20468;-78
2022/07/24 08:40:38;;;;;;;4.80;4.17;;;28.00;99.90;;;;;;5047801;28;20507;-77
2022/07/24 08:43:07;;;;;;;5.60;4.10;;;28.20;99.90;;;;;;5047969;28;20461;-77
2022/07/24 08:45:36;;;;;;;9.30;4.67;;;28.40;99.90;;;;;;5046987;28;20449;-77
2022/07/24 08:48:04;;;;;;;4.13;3.77;;;28.50;99.90;;;;;;5046872;28;20890;-77
2022/07/24 08:50:30;;;;;;;6.90;4.73;;;28.60;99.90;;;;;;5046919;28;20456;-78
2022/07/24 08:53:00;;;;;;;6.47;4.60;;;29.00;99.90;;;;;;5044652;28;20534;-77
2022/07/24 08:55:28;;;;;;;4.50;4.10;;;29.20;99.90;;;;;;5045862;28;20484;-78
2022/07/24 08:57:56;;;;;;;5.37;4.57;;;29.40;99.90;;;;;;5046741;28;20472;-77
2022/07/24 09:00:23;;;;;;;6.23;4.20;;;29.40;99.90;;;;;;5046611;28;20448;-77
2022/07/24 09:02:51;;;;;;;6.43;4.37;;;29.20;99.90;;;;;;5045011;28;20440;-76
2022/07/24 09:05:17;;;;;;;5.17;4.33;;;29.10;99.90;;;;;;5033929;28;21087;-73
2022/07/24 09:07:44;;;;;;;4.43;4.03;;;28.90;99.90;;;;;;5033369;28;20469;-74
2022/07/24 09:10:13;;;;;;;4.50;4.10;;;28.90;99.90;;;;;;5030411;28;20464;-73
2022/07/24 09:12:44;;;;;;;4.63;4.17;;;28.90;99.90;;;;;;5029017;28;20492;-74
2022/07/24 09:15:16;;;;;;;7.60;4.60;;;29.00;99.90;;;;;;5029391;28;20872;-74
2022/07/24 09:17:52;;;;;;;5.67;5.17;;;29.20;99.90;;;;;;5033003;28;20503;-73
2022/07/24 09:20:20;;;;;;;7.90;4.63;;;29.40;99.90;;;;;;5032666;28;20475;-72
2022/07/24 09:22:46;;;;;;;6.57;4.83;;;29.70;99.90;;;;;;5030459;28;20441;-73
2022/07/24 09:25:15;;;;;;;6.10;4.37;;;29.90;99.90;;;;;;5030119;28;20503;-72
2022/07/24 09:27:47;;;;;;;9.60;4.90;;;30.00;99.90;;;;;;5029342;28;20519;-72
2022/07/24 09:30:24;;;;;;;4.70;4.10;;;30.00;99.90;;;;;;5032823;28;20949;-73
2022/07/24 09:32:54;;;;;;;4.30;4.00;;;30.20;99.90;;;;;;5029949;28;20481;-74
2022/07/24 09:35:24;;;;;;;5.20;4.50;;;30.30;99.90;;;;;;5032031;28;20446;-74
2022/07/24 09:37:54;;;;;;;6.60;4.27;;;30.00;98.60;;;;;;5032784;28;20492;-73
2022/07/24 09:40:21;;;;;;;4.60;4.30;;;29.70;99.00;;;;;;5032606;28;20453;-72
2022/07/24 09:42:49;;;;;;;6.77;4.47;;;29.70;99.60;;;;;;5031335;28;20446;-74
2022/07/24 09:45:16;;;;;;;6.90;4.87;;;29.90;99.70;;;;;;5032072;28;20886;-73
2022/07/24 09:47:43;;;;;;;5.30;4.40;;;30.10;99.90;;;;;;5032234;28;20527;-74
2022/07/24 09:50:16;;;;;;;5.23;4.57;;;30.10;99.80;;;;;;5029076;28;20504;-76
2022/07/24 09:52:43;;;;;;;7.40;4.77;;;30.40;99.10;;;;;;5028736;28;20484;-73
2022/07/24 09:55:24;;;;;;;5.30;4.60;;;30.40;99.30;;;;;;5028536;28;20548;-72
2022/07/24 09:57:51;;;;;;;4.93;4.43;;;30.50;99.90;;;;;;5029986;28;20891;-74
2022/07/24 10:00:19;;;;;;;5.80;4.30;;;30.70;99.80;;;;;;5032052;28;20457;-75
2022/07/24 10:02:46;;;;;;;5.87;4.43;;;30.90;98.30;;;;;;5030271;28;20450;-75
2022/07/24 10:05:15;;;;;;;5.27;4.87;;;31.00;97.80;;;;;;5032374;28;21016;-77
2022/07/24 10:07:43;;;;;;;10.87;4.23;;;31.10;98.70;;;;;;5032360;28;20480;-74
2022/07/24 10:10:11;;;;;;;5.37;4.80;;;31.30;98.20;;;;;;5032464;28;20957;-75
2022/07/24 10:12:38;;;;;;;5.47;4.30;;;31.20;98.10;;;;;;5032061;28;20515;-74
2022/07/24 10:15:06;;;;;;;4.33;3.93;;;31.40;97.80;;;;;;5029810;28;20461;-73
2022/07/24 10:18:08;;;;;;;4.70;4.30;;;31.70;96.70;;;;;;5030914;28;20469;-73
2022/07/24 10:20:40;;;;;;;5.07;4.67;;;31.70;97.20;;;;;;5032334;28;21022;-70
2022/07/24 10:23:08;;;;;;;5.30;4.80;;;32.00;97.40;;;;;;5032033;28;20445;-74
2022/07/24 10:25:56;;;;;;;5.77;5.17;;;32.00;96.00;;;;;;5031222;28;20461;-76
2022/07/24 10:28:38;;;;;;;4.93;4.40;;;31.90;95.90;;;;;;5031374;28;20450;-77
2022/07/24 10:31:09;;;;;;;4.63;4.33;;;31.60;96.40;;;;;;5031735;28;20548;-75
2022/07/24 10:33:37;;;;;;;5.33;4.73;;;31.40;96.60;;;;;;5030860;28;20547;-76
2022/07/24 10:36:15;;;;;;;6.60;4.53;;;31.10;96.10;;;;;;5031217;28;20953;-75
2022/07/24 10:38:49;;;;;;;6.80;4.70;;;31.00;96.50;;;;;;5031833;28;20453;-72
2022/07/24 10:41:23;;;;;;;8.07;4.80;;;31.10;96.40;;;;;;5031523;28;20861;-79
2022/07/24 10:44:12;;;;;;;5.47;4.37;;;31.10;96.60;;;;;;5030897;28;20504;-78
2022/07/24 10:46:57;;;;;;;5.47;4.93;;;31.40;97.30;;;;;;4955963;28;20485;-80
2022/07/24 10:49:40;;;;;;;5.33;4.93;;;31.70;96.20;;;;;;5031082;28;20442;-77
2022/07/24 10:52:09;;;;;;;4.93;4.53;;;31.70;95.60;;;;;;4980006;28;21078;-76
2022/07/24 10:54:36;;;;;;;7.30;4.80;;;31.70;96.20;;;;;;5031129;28;20489;-74
2022/07/24 10:57:03;;;;;;;5.47;4.87;;;31.50;95.10;;;;;;5030481;28;20853;-76
2022/07/24 10:59:35;;;;;;;6.03;5.43;;;31.10;95.40;;;;;;5031226;28;20449;-75
2022/07/24 11:02:25;;;;;;;7.13;5.63;;;31.00;95.90;;;;;;5030023;28;20449;-79
2022/07/24 11:05:26;;;;;;;6.03;5.27;;;30.90;96.30;;;;;;5030498;28;20525;-76
2022/07/24 11:08:33;;;;;;;5.37;4.87;;;31.20;96.20;;;;;;5030793;28;20461;-76
2022/07/24 11:11:18;;;;;;;11.97;5.20;;;31.70;96.00;;;;;;5030824;28;20519;-74
2022/07/24 11:13:52;;;;;;;7.13;4.50;;;32.10;95.20;;;;;;5026778;28;20481;-72
2022/07/24 11:16:27;;;;;;;5.83;4.93;;;32.20;94.00;;;;;;5028224;28;20464;-72
2022/07/24 11:19:29;;;;;;;7.80;5.30;;;32.00;93.90;;;;;;5029400;28;20460;-78
2022/07/24 11:22:11;;;;;;;6.13;5.53;;;32.00;94.30;;;;;;5030410;28;20453;-75
2022/07/24 11:25:12;;;;;;;5.93;5.40;;;31.50;94.50;;;;;;5030373;28;20453;-69
2022/07/24 11:27:57;;;;;;;10.40;5.20;;;31.10;94.10;;;;;;5027948;28;20469;-70
2022/07/24 11:30:25;;;;;;;4.95;4.45;;;30.90;94.70;;;;;;5026799;28;20542;-70
2022/07/24 11:32:52;;;;;;;4.77;4.37;;;30.70;94.70;;;;;;5030360;28;20666;-70
2022/07/24 11:35:28;;;;;;;6.30;5.73;;;30.70;95.20;;;;;;5030047;28;20491;-71
2022/07/24 11:37:55;;;;;;;7.10;5.00;;;31.10;95.80;;;;;;5029853;28;20480;-72
2022/07/24 11:40:23;;;;;;;6.40;4.90;;;31.30;94.40;;;;;;5030113;28;20457;-71
2022/07/24 11:42:57;;;;;;;6.30;5.70;;;31.10;94.00;;;;;;5030554;28;20449;-72
2022/07/24 11:45:24;;;;;;;6.13;5.17;;;30.70;94.10;;;;;;5029842;28;20541;-71
2022/07/24 11:47:54;;;;;;;6.23;5.40;;;30.70;95.00;;;;;;5030290;28;20469;-72
2022/07/24 11:50:21;;;;;;;5.80;5.27;;;30.80;94.20;;;;;;5029757;28;20535;-72
2022/07/24 11:52:48;;;;;;;5.30;4.80;;;31.10;95.30;;;;;;5030001;28;20869;-71
2022/07/24 11:55:17;;;;;;;5.90;5.40;;;31.60;94.10;;;;;;5029904;28;20477;-71
2022/07/24 11:57:46;;;;;;;7.10;5.30;;;31.70;93.40;;;;;;5030128;28;20465;-71
2022/07/24 12:00:16;;;;;;;10.53;5.30;;;31.80;94.00;;;;;;5028504;28;20458;-71
2022/07/24 12:02:46;;;;;;;6.87;5.90;;;32.00;92.90;;;;;;5026692;28;20450;-72
2022/07/24 12:05:14;;;;;;;6.13;5.10;;;31.90;93.30;;;;;;5029992;28;20449;-71
2022/07/24 12:07:40;;;;;;;5.60;5.10;;;31.90;93.00;;;;;;5026412;28;20527;-72
2022/07/24 12:10:08;;;;;;;22.27;5.40;;;31.80;93.00;;;;;;5029921;28;20449;-71
2022/07/24 12:12:36;;;;;;;5.70;4.90;;;31.70;92.90;;;;;;5029967;28;20465;-72
2022/07/24 12:15:06;;;;;;;7.93;5.30;;;31.70;92.60;;;;;;5029181;28;20457;-76
2022/07/24 12:17:36;;;;;;;19.03;15.93;;;31.90;93.20;;;;;;5029131;28;20218;-75
2022/07/24 12:20:06;;;;;;;6.43;5.10;;;32.30;93.00;;;;;;5030103;28;20512;-75
2022/07/24 12:22:33;;;;;;;5.70;4.83;;;32.60;91.80;;;;;;5029887;28;20476;-76
2022/07/24 12:25:00;;;;;;;6.60;5.23;;;32.70;92.20;;;;;;5029534;28;20784;-76
2022/07/24 12:27:35;;;;;;;6.75;4.60;;;32.70;91.50;;;;;;5028842;28;20445;-75
2022/07/24 12:30:03;;;;;;;6.33;4.53;;;32.30;92.10;;;;;;5029991;28;20692;-82
2022/07/24 12:32:30;;;;;;;6.23;5.30;;;32.10;92.00;;;;;;5030603;28;20446;-79
2022/07/24 12:34:58;;;;;;;8.57;6.83;;;32.10;91.70;;;;;;5029992;28;20596;-79
2022/07/24 12:37:24;;;;;;;5.77;5.03;;;32.10;92.00;;;;;;5030315;28;20474;-77
2022/07/24 12:39:53;;;;;;;6.87;5.03;;;32.20;91.60;;;;;;5032028;28;20453;-82
2022/07/24 12:42:30;;;;;;;12.63;6.03;;;32.20;90.90;;;;;;5033758;28;20449;-77
2022/07/24 12:45:07;;;;;;;6.67;5.47;;;31.80;90.80;;;;;;5033602;28;20457;-78
2022/07/24 12:47:33;;;;;;;5.40;4.90;;;31.60;91.30;;;;;;5033733;28;20523;-78
2022/07/24 12:50:12;;;;;;;5.33;4.83;;;31.70;92.20;;;;;;5033412;28;20461;-76
2022/07/24 12:52:39;;;;;;;86.73;77.23;;;32.10;91.50;;;;;;5033461;28;20453;-81